createdAt,value
2019-01-28T00:00:32.755Z,3.40
2019-01-28T00:03:02.021Z,3.40
2019-01-28T00:05:30.490Z,3.40
2019-01-28T00:07:58.906Z,3.40
2019-01-28T00:10:27.321Z,3.40
2019-01-28T00:12:55.765Z,3.40
2019-01-28T00:15:24.437Z,3.40
2019-01-28T00:17:52.894Z,3.40
2019-01-28T00:20:21.308Z,3.40
2019-01-28T00:22:49.754Z,3.40
2019-01-28T00:25:18.258Z,3.40
2019-01-28T00:27:46.665Z,3.40
2019-01-28T00:30:15.348Z,3.40
2019-01-28T00:32:43.776Z,3.40
2019-01-28T00:35:12.455Z,3.40
2019-01-28T00:37:40.891Z,3.40
2019-01-28T00:40:11.110Z,3.40
2019-01-28T00:42:39.551Z,3.40
2019-01-28T00:45:11.130Z,3.40
2019-01-28T00:47:39.573Z,3.40
2019-01-28T00:50:10.745Z,3.40
2019-01-28T00:52:39.157Z,3.40
2019-01-28T00:55:10.507Z,3.30
2019-01-28T00:57:38.957Z,3.40
2019-01-28T01:00:13.481Z,3.40
2019-01-28T01:02:42.017Z,3.40
2019-01-28T01:05:10.499Z,3.40
2019-01-28T01:07:42.538Z,3.30
2019-01-28T01:10:13.039Z,3.40
2019-01-28T01:12:41.536Z,3.30
2019-01-28T01:15:12.506Z,3.30
2019-01-28T01:17:41.009Z,3.30
2019-01-28T01:20:12.192Z,3.30
2019-01-28T01:22:40.603Z,3.30
2019-01-28T01:25:09.594Z,3.20
2019-01-28T01:27:38.099Z,3.20
2019-01-28T01:30:12.869Z,3.20
2019-01-28T01:32:41.293Z,3.20
2019-01-28T01:35:09.981Z,3.10
2019-01-28T01:37:38.667Z,3.10
2019-01-28T01:40:10.506Z,3.10
2019-01-28T01:42:38.938Z,3.10
2019-01-28T01:45:12.974Z,3.10
2019-01-28T01:47:41.476Z,3.10
2019-01-28T01:50:10.932Z,3.10
2019-01-28T01:52:39.451Z,3.10
2019-01-28T01:55:10.831Z,3.10
2019-01-28T01:57:39.265Z,3.20
2019-01-28T02:00:13.187Z,3.10
2019-01-28T02:02:41.610Z,3.20
2019-01-28T02:05:10.199Z,3.20
2019-01-28T02:07:38.645Z,3.20
2019-01-28T02:10:13.975Z,3.10
2019-01-28T02:12:42.556Z,3.10
2019-01-28T02:15:18.227Z,3.10
2019-01-28T02:17:46.784Z,3.10
2019-01-28T02:20:15.534Z,3.10
2019-01-28T02:22:43.994Z,3.10
2019-01-28T02:25:14.298Z,3.10
2019-01-28T02:27:42.798Z,3.10
2019-01-28T02:30:15.908Z,3.10
2019-01-28T02:32:44.386Z,3.10
2019-01-28T02:35:13.243Z,3.10
2019-01-28T02:37:41.913Z,3.10
2019-01-28T02:40:15.572Z,3.10
2019-01-28T02:42:44.146Z,3.10
2019-01-28T02:45:14.798Z,3.10
2019-01-28T02:47:43.254Z,3.10
2019-01-28T02:50:18.353Z,3.10
2019-01-28T02:52:46.861Z,3.10
2019-01-28T02:55:15.591Z,3.10
2019-01-28T02:57:44.013Z,3.10
2019-01-28T03:00:17.959Z,3.10
2019-01-28T03:02:46.994Z,3.10
2019-01-28T03:05:15.986Z,3.10
2019-01-28T03:07:44.668Z,3.10
2019-01-28T03:10:15.914Z,3.10
2019-01-28T03:12:44.351Z,3.10
2019-01-28T03:15:13.008Z,3.10
2019-01-28T03:17:41.444Z,3.10
2019-01-28T03:20:14.723Z,3.10
2019-01-28T03:22:43.195Z,3.10
2019-01-28T03:25:13.843Z,3.20
2019-01-28T03:27:42.345Z,3.10
2019-01-28T03:30:13.819Z,3.10
2019-01-28T03:32:42.263Z,3.10
2019-01-28T03:35:10.829Z,3.10
2019-01-28T03:37:39.252Z,3.10
2019-01-28T03:40:10.777Z,3.10
2019-01-28T03:42:39.206Z,3.10
2019-01-28T03:45:13.043Z,3.10
2019-01-28T03:47:41.521Z,3.10
2019-01-28T03:50:12.815Z,3.10
2019-01-28T03:52:41.384Z,3.10
2019-01-28T03:55:11.829Z,3.10
2019-01-28T03:57:40.396Z,3.10
2019-01-28T04:00:14.936Z,3.10
2019-01-28T04:02:43.381Z,3.10
2019-01-28T04:05:12.225Z,3.10
2019-01-28T04:07:40.651Z,3.10
2019-01-28T04:10:14.532Z,3.00
2019-01-28T04:12:43.185Z,3.00
2019-01-28T04:15:14.226Z,3.00
2019-01-28T04:17:42.752Z,3.00
2019-01-28T04:20:13.753Z,3.00
2019-01-28T04:22:42.188Z,3.00
2019-01-28T04:25:11.636Z,3.00
2019-01-28T04:27:40.059Z,3.00
2019-01-28T04:30:11.561Z,2.90
2019-01-28T04:32:40.018Z,3.00
2019-01-28T04:35:09.126Z,2.90
2019-01-28T04:37:37.557Z,2.90
2019-01-28T04:40:09.169Z,2.90
2019-01-28T04:42:37.838Z,2.90
2019-01-28T04:45:14.598Z,2.90
2019-01-28T04:47:43.285Z,2.90
2019-01-28T04:50:14.698Z,2.90
2019-01-28T04:52:43.160Z,2.90
2019-01-28T04:55:13.464Z,2.90
2019-01-28T04:57:41.883Z,2.90
2019-01-28T05:00:13.023Z,2.90
2019-01-28T05:02:41.495Z,2.90
2019-01-28T05:05:11.047Z,2.90
2019-01-28T05:07:39.452Z,2.90
2019-01-28T05:10:10.949Z,2.90
2019-01-28T05:12:39.358Z,2.90
2019-01-28T05:15:10.130Z,2.90
2019-01-28T05:17:38.536Z,2.90
2019-01-28T05:20:12.492Z,2.90
2019-01-28T05:22:40.926Z,2.90
2019-01-28T05:25:11.929Z,2.90
2019-01-28T05:27:40.347Z,2.90
2019-01-28T05:30:11.823Z,2.90
2019-01-28T05:32:40.260Z,2.90
2019-01-28T05:35:12.036Z,2.90
2019-01-28T05:37:40.468Z,2.90
2019-01-28T05:40:12.229Z,2.90
2019-01-28T05:42:40.660Z,2.90
2019-01-28T05:45:12.330Z,2.90
2019-01-28T05:47:40.845Z,2.90
2019-01-28T05:50:10.882Z,2.90
2019-01-28T05:52:39.357Z,2.90
2019-01-28T05:55:10.733Z,2.90
2019-01-28T05:57:39.212Z,2.90
2019-01-28T06:00:23.693Z,2.90
2019-01-28T06:02:52.139Z,2.90
2019-01-28T06:05:20.727Z,2.90
2019-01-28T06:07:49.133Z,2.90
2019-01-28T06:10:17.624Z,2.80
2019-01-28T06:12:46.121Z,2.80
2019-01-28T06:15:16.576Z,2.80
2019-01-28T06:17:45.061Z,2.80
2019-01-28T06:20:16.792Z,2.80
2019-01-28T06:22:45.416Z,2.80
2019-01-28T06:25:13.977Z,2.80
2019-01-28T06:27:42.464Z,2.80
2019-01-28T06:30:14.185Z,2.80
2019-01-28T06:32:42.609Z,2.80
2019-01-28T06:35:11.108Z,2.80
2019-01-28T06:37:39.519Z,2.80
2019-01-28T06:40:11.021Z,2.80
2019-01-28T06:42:39.449Z,2.70
2019-01-28T06:45:11.289Z,2.70
2019-01-28T06:47:46.401Z,2.70
2019-01-28T06:50:12.983Z,2.80
2019-01-28T06:52:41.412Z,2.80
2019-01-28T06:55:10.960Z,2.70
2019-01-28T06:57:39.396Z,2.80
2019-01-28T07:00:19.895Z,2.70
2019-01-28T07:02:48.464Z,2.70
2019-01-28T07:05:16.894Z,2.70
2019-01-28T07:07:45.303Z,2.70
2019-01-28T07:10:14.889Z,2.80
2019-01-28T07:12:43.281Z,2.80
2019-01-28T07:15:17.073Z,2.80
2019-01-28T07:17:45.547Z,2.80
2019-01-28T07:20:16.885Z,2.80
2019-01-28T07:22:45.447Z,2.80
2019-01-28T07:25:14.024Z,2.80
2019-01-28T07:27:42.540Z,2.80
2019-01-28T07:30:22.729Z,2.80
2019-01-28T07:32:51.142Z,2.80
2019-01-28T07:35:19.579Z,2.80
2019-01-28T07:37:47.976Z,2.70
2019-01-28T07:40:16.680Z,2.80
2019-01-28T07:42:46.236Z,2.80
2019-01-28T07:45:23.722Z,2.80
2019-01-28T07:47:52.208Z,2.80
2019-01-28T07:50:20.785Z,2.80
2019-01-28T07:52:49.261Z,2.80
2019-01-28T07:55:17.740Z,2.80
2019-01-28T07:57:46.252Z,2.80
2019-01-28T08:00:19.431Z,2.80
2019-01-28T08:02:48.193Z,2.80
2019-01-28T08:05:17.952Z,2.80
2019-01-28T08:07:46.384Z,2.80
2019-01-28T08:10:17.028Z,2.80
2019-01-28T08:12:45.857Z,2.90
2019-01-28T08:15:26.108Z,2.80
2019-01-28T08:17:54.592Z,2.90
2019-01-28T08:20:23.136Z,2.90
2019-01-28T08:22:51.617Z,2.90
2019-01-28T08:25:21.303Z,2.90
2019-01-28T08:27:50.374Z,2.90
2019-01-28T08:30:21.581Z,2.90
2019-01-28T08:32:54.882Z,2.90
2019-01-28T08:35:23.955Z,2.90
2019-01-28T08:37:52.364Z,2.90
2019-01-28T08:40:21.916Z,2.90
2019-01-28T08:42:50.601Z,2.90
2019-01-28T08:45:19.067Z,2.90
2019-01-28T08:47:47.500Z,2.90
2019-01-28T08:50:18.821Z,2.90
2019-01-28T08:52:47.400Z,2.90
2019-01-28T08:55:18.751Z,2.90
2019-01-28T08:57:47.396Z,2.90
2019-01-28T09:00:27.300Z,2.90
2019-01-28T09:02:55.728Z,2.90
2019-01-28T09:05:24.240Z,2.90
2019-01-28T09:07:52.644Z,2.90
2019-01-28T09:10:23.786Z,2.90
2019-01-28T09:12:52.345Z,2.90
2019-01-28T09:15:22.261Z,2.90
2019-01-28T09:17:50.854Z,2.90
2019-01-28T09:20:24.591Z,2.90
2019-01-28T09:22:53.060Z,2.90
2019-01-28T09:25:21.631Z,2.90
2019-01-28T09:27:50.108Z,2.90
2019-01-28T09:30:27.280Z,2.90
2019-01-28T09:32:55.764Z,2.90
2019-01-28T09:35:24.255Z,2.90
2019-01-28T09:37:52.767Z,2.90
2019-01-28T09:40:23.321Z,3.00
2019-01-28T09:42:51.794Z,3.00
2019-01-28T09:45:23.292Z,3.00
2019-01-28T09:47:51.707Z,3.00
2019-01-28T09:50:20.382Z,3.10
2019-01-28T09:52:51.138Z,3.10
2019-01-28T09:55:19.828Z,3.10
2019-01-28T09:57:48.291Z,3.10
2019-01-28T10:00:34.827Z,3.20
2019-01-28T10:03:04.363Z,3.20
2019-01-28T10:05:32.775Z,3.30
2019-01-28T10:08:01.448Z,3.30
2019-01-28T10:10:29.926Z,3.40
2019-01-28T10:12:58.345Z,3.40
2019-01-28T10:15:29.042Z,3.40
2019-01-28T10:17:58.005Z,3.50
2019-01-28T10:20:29.497Z,3.50
2019-01-28T10:22:58.002Z,3.50
2019-01-28T10:25:26.424Z,3.50
2019-01-28T10:27:54.832Z,3.50
2019-01-28T10:30:31.983Z,3.50
2019-01-28T10:33:00.830Z,3.50
2019-01-28T10:35:30.736Z,3.50
2019-01-28T10:37:59.160Z,3.50
2019-01-28T10:40:35.540Z,3.50
2019-01-28T10:43:05.689Z,3.50
2019-01-28T10:45:34.102Z,3.50
2019-01-28T10:48:02.591Z,3.50
2019-01-28T10:50:31.013Z,3.50
2019-01-28T10:52:59.451Z,3.50
2019-01-28T10:55:28.492Z,3.50
2019-01-28T10:57:57.437Z,3.50
2019-01-28T11:00:37.580Z,3.50
2019-01-28T11:03:07.535Z,3.50
2019-01-28T11:05:36.397Z,3.50
2019-01-28T11:08:06.073Z,3.50
2019-01-28T11:10:34.705Z,3.50
2019-01-28T11:13:05.093Z,3.50
2019-01-28T11:15:33.315Z,3.50
2019-01-28T11:18:07.333Z,3.50
2019-01-28T11:20:35.793Z,3.60
2019-01-28T11:23:04.353Z,3.60
2019-01-28T11:25:32.984Z,3.60
2019-01-28T11:28:01.452Z,3.60
2019-01-28T11:30:36.754Z,3.60
2019-01-28T11:33:05.436Z,3.60
2019-01-28T11:35:35.616Z,3.60
2019-01-28T11:38:05.057Z,3.60
2019-01-28T11:40:33.733Z,3.60
2019-01-28T11:43:02.158Z,3.60
2019-01-28T11:45:33.642Z,3.60
2019-01-28T11:48:02.124Z,3.60
2019-01-28T11:50:30.551Z,3.60
2019-01-28T11:52:58.954Z,3.60
2019-01-28T11:55:28.640Z,3.60
2019-01-28T11:57:57.080Z,3.60
2019-01-28T12:00:35.954Z,3.60
2019-01-28T12:03:04.372Z,3.60
2019-01-28T12:05:32.788Z,3.60
2019-01-28T12:08:01.191Z,3.60
2019-01-28T12:10:29.755Z,3.60
2019-01-28T12:12:58.164Z,3.60
2019-01-28T12:15:26.602Z,3.60
2019-01-28T12:17:55.075Z,3.60
2019-01-28T12:20:23.894Z,3.60
2019-01-28T12:22:52.409Z,3.60
2019-01-28T12:25:20.839Z,3.50
2019-01-28T12:27:49.316Z,3.50
2019-01-28T12:30:20.765Z,3.50
2019-01-28T12:32:49.247Z,3.50
2019-01-28T12:35:17.744Z,3.50
2019-01-28T12:37:46.217Z,3.50
2019-01-28T12:40:19.432Z,3.50
2019-01-28T12:42:47.979Z,3.50
2019-01-28T12:45:18.844Z,3.50
2019-01-28T12:47:47.615Z,3.50
2019-01-28T12:50:18.456Z,3.50
2019-01-28T12:52:46.979Z,3.50
2019-01-28T12:55:20.197Z,3.50
2019-01-28T12:57:48.699Z,3.50
2019-01-28T13:00:36.048Z,3.50
2019-01-28T13:03:05.706Z,3.50
2019-01-28T13:05:34.200Z,3.50
2019-01-28T13:08:02.661Z,3.60
2019-01-28T13:10:31.079Z,3.50
2019-01-28T13:12:59.750Z,3.60
2019-01-28T13:15:32.524Z,3.60
2019-01-28T13:18:00.931Z,3.60
2019-01-28T13:20:29.518Z,3.60
2019-01-28T13:22:57.991Z,3.60
2019-01-28T13:25:28.991Z,3.60
2019-01-28T13:27:57.471Z,3.60
2019-01-28T13:30:34.979Z,3.60
2019-01-28T13:33:04.545Z,3.60
2019-01-28T13:35:32.943Z,3.70
2019-01-28T13:38:01.376Z,3.60
2019-01-28T13:40:29.789Z,3.70
2019-01-28T13:42:58.196Z,3.70
2019-01-28T13:45:26.617Z,3.70
2019-01-28T13:47:55.184Z,3.70
2019-01-28T13:50:24.751Z,3.70
2019-01-28T13:52:53.384Z,3.70
2019-01-28T13:55:22.960Z,3.70
2019-01-28T13:57:51.431Z,3.70
2019-01-28T14:00:30.753Z,3.70
2019-01-28T14:02:59.540Z,3.70
2019-01-28T14:05:28.010Z,3.60
2019-01-28T14:07:57.101Z,3.70
2019-01-28T14:10:25.742Z,3.70
2019-01-28T14:12:55.245Z,3.70
2019-01-28T14:15:32.365Z,3.70
2019-01-28T14:18:00.769Z,3.70
2019-01-28T14:20:31.905Z,3.70
2019-01-28T14:23:00.393Z,3.70
2019-01-28T14:25:28.866Z,3.60
2019-01-28T14:27:57.299Z,3.60
2019-01-28T14:30:37.167Z,3.60
2019-01-28T14:33:06.231Z,3.60
2019-01-28T14:35:34.877Z,3.60
2019-01-28T14:38:03.955Z,3.60
2019-01-28T14:40:32.592Z,3.50
2019-01-28T14:43:01.161Z,3.60
2019-01-28T14:49:09.703Z,3.60
2019-01-28T14:51:38.132Z,3.60
2019-01-28T14:54:06.659Z,3.60
2019-01-28T14:56:35.092Z,3.60
2019-01-28T14:59:03.816Z,3.60
2019-01-28T15:01:32.287Z,3.60
2019-01-28T15:04:00.776Z,3.60
2019-01-28T15:06:29.223Z,3.60
2019-01-28T15:08:57.671Z,3.50
2019-01-28T15:11:26.791Z,3.60
2019-01-28T15:13:55.216Z,3.60
2019-01-28T15:16:23.656Z,3.50
2019-01-28T15:18:52.150Z,3.50
2019-01-28T15:21:20.608Z,3.50
2019-01-28T15:23:49.023Z,3.50
2019-01-28T15:26:17.493Z,3.50
2019-01-28T15:28:46.213Z,3.50
2019-01-28T15:31:14.688Z,3.50
2019-01-28T15:33:43.112Z,3.50
2019-01-28T15:36:11.538Z,3.50
2019-01-28T15:38:39.992Z,3.40
2019-01-28T15:41:08.423Z,3.40
2019-01-28T15:43:36.867Z,3.40
2019-01-28T15:46:05.425Z,3.40
2019-01-28T15:48:33.880Z,3.40
2019-01-28T15:51:02.376Z,3.40
2019-01-28T15:53:30.844Z,3.40
2019-01-28T15:55:59.259Z,3.40
2019-01-28T15:58:27.734Z,3.40
2019-01-28T16:00:56.156Z,3.30
2019-01-28T16:03:24.947Z,3.30
2019-01-28T16:05:53.651Z,3.30
2019-01-28T16:08:22.067Z,3.40
2019-01-28T16:10:50.525Z,3.40
2019-01-28T16:13:18.951Z,3.30
2019-01-28T16:15:47.741Z,3.30
2019-01-28T16:18:16.165Z,3.30
2019-01-28T16:20:44.751Z,3.30
2019-01-28T16:23:13.243Z,3.30
2019-01-28T16:25:41.693Z,3.30
2019-01-28T16:28:10.310Z,3.30
2019-01-28T16:30:38.937Z,3.30
2019-01-28T16:33:07.396Z,3.30
2019-01-28T16:35:35.887Z,3.20
2019-01-28T16:38:04.672Z,3.20
2019-01-28T16:40:33.836Z,3.20
2019-01-28T16:43:02.356Z,3.20
2019-01-28T16:45:31.068Z,3.20
2019-01-28T16:47:59.516Z,3.20
2019-01-28T16:50:30.440Z,3.20
2019-01-28T16:52:58.892Z,3.20
2019-01-28T16:55:27.391Z,3.20
2019-01-28T16:57:56.252Z,3.20
2019-01-28T17:00:29.551Z,3.20
2019-01-28T17:02:58.040Z,3.20
2019-01-28T17:05:27.325Z,3.20
2019-01-28T17:07:55.854Z,3.20
2019-01-28T17:10:24.753Z,3.20
2019-01-28T17:12:53.335Z,3.20
2019-01-28T17:15:23.301Z,3.20
2019-01-28T17:17:51.892Z,3.20
2019-01-28T17:20:35.505Z,3.20
2019-01-28T17:23:01.440Z,3.10
2019-01-28T17:25:32.791Z,3.10
2019-01-28T17:28:01.270Z,3.00
2019-01-28T17:30:37.971Z,3.00
2019-01-28T17:33:06.879Z,2.90
2019-01-28T17:35:35.776Z,2.80
2019-01-28T17:38:06.075Z,2.70
2019-01-28T17:40:34.631Z,2.60
2019-01-28T17:43:03.863Z,2.60
2019-01-28T17:45:32.332Z,2.50
2019-01-28T17:48:01.584Z,2.50
2019-01-28T17:50:30.107Z,2.40
2019-01-28T17:52:58.591Z,2.30
2019-01-28T17:55:27.040Z,2.30
2019-01-28T17:57:55.460Z,2.20
2019-01-28T18:00:30.490Z,2.20
2019-01-28T18:02:58.992Z,2.20
2019-01-28T18:05:27.506Z,2.10
2019-01-28T18:07:55.956Z,2.00
2019-01-28T18:10:24.561Z,2.00
2019-01-28T18:12:53.122Z,1.90
2019-01-28T18:15:26.668Z,1.90
2019-01-28T18:17:55.091Z,1.90
2019-01-28T18:20:23.934Z,1.90
2019-01-28T18:22:52.426Z,1.80
2019-01-28T18:25:32.187Z,1.80
2019-01-28T18:28:00.688Z,1.80
2019-01-28T18:30:49.635Z,1.70
2019-01-28T18:33:18.198Z,1.70
2019-01-28T18:35:47.080Z,1.70
2019-01-28T18:38:15.496Z,1.60
2019-01-28T18:40:44.023Z,1.60
2019-01-28T18:43:12.618Z,1.50
2019-01-28T18:45:41.140Z,1.50
2019-01-28T18:48:09.719Z,1.50
2019-01-28T18:50:38.208Z,1.40
2019-01-28T18:53:06.731Z,1.40
2019-01-28T18:55:35.155Z,1.30
2019-01-28T18:58:04.879Z,1.30
2019-01-28T19:00:34.440Z,1.30
2019-01-28T19:03:02.965Z,1.30
2019-01-28T19:05:39.356Z,1.30
2019-01-28T19:08:12.308Z,1.30
2019-01-28T19:10:42.368Z,1.20
2019-01-28T19:13:27.207Z,1.20
2019-01-28T19:16:00.072Z,1.10
2019-01-28T19:18:32.527Z,1.10
2019-01-28T19:21:07.772Z,1.10
2019-01-28T19:23:32.784Z,1.00
2019-01-28T19:26:01.202Z,1.00
2019-01-28T19:28:29.652Z,1.00
2019-01-28T19:30:58.109Z,1.00
2019-01-28T19:33:26.557Z,1.00
2019-01-28T19:35:54.985Z,0.90
2019-01-28T19:38:23.400Z,0.90
2019-01-28T19:40:51.851Z,0.90
2019-01-28T19:43:20.296Z,0.90
2019-01-28T19:45:48.743Z,0.80
2019-01-28T19:48:17.200Z,0.80
2019-01-28T19:50:45.666Z,0.80
2019-01-28T19:53:14.128Z,0.80
2019-01-28T19:55:42.549Z,0.80
2019-01-28T19:58:10.968Z,0.80
2019-01-28T20:00:39.587Z,0.80
2019-01-28T20:03:08.079Z,0.70
2019-01-28T20:05:36.591Z,0.70
2019-01-28T20:08:05.595Z,0.70
2019-01-28T20:10:34.052Z,0.70
2019-01-28T20:13:02.543Z,0.70
2019-01-28T20:15:30.992Z,0.70
2019-01-28T20:17:59.450Z,0.70
2019-01-28T20:20:27.879Z,0.70
2019-01-28T20:22:56.341Z,0.60
2019-01-28T20:25:25.026Z,0.60
2019-01-28T20:27:53.528Z,0.60
2019-01-28T20:30:24.931Z,0.50
2019-01-28T20:32:53.555Z,0.50
2019-01-28T20:35:24.136Z,0.50
2019-01-28T20:37:52.651Z,0.40
2019-01-28T20:40:21.080Z,0.40
2019-01-28T20:42:49.591Z,0.40
2019-01-28T20:45:25.429Z,0.40
2019-01-28T20:47:55.514Z,0.40
2019-01-28T20:50:26.384Z,0.40
2019-01-28T20:52:59.002Z,0.30
2019-01-28T20:55:27.857Z,0.30
2019-01-28T20:57:56.327Z,0.30
2019-01-28T21:00:26.728Z,0.30
2019-01-28T21:02:55.260Z,0.30
2019-01-28T21:05:25.065Z,0.30
2019-01-28T21:07:53.864Z,0.20
2019-01-28T21:10:22.787Z,0.20
2019-01-28T21:12:52.960Z,0.20
2019-01-28T21:15:22.150Z,0.20
2019-01-28T21:17:51.482Z,0.20
2019-01-28T21:20:21.283Z,0.20
2019-01-28T21:22:50.336Z,0.10
2019-01-28T21:25:24.644Z,0.10
2019-01-28T21:27:53.060Z,0.10
2019-01-28T21:30:24.232Z,0.00
2019-01-28T21:32:52.772Z,0.00
2019-01-28T21:35:24.112Z,0.00
2019-01-28T21:38:01.090Z,0.00
2019-01-28T21:40:30.668Z,-0.10
2019-01-28T21:42:59.387Z,-0.10
2019-01-28T21:45:27.844Z,-0.10
2019-01-28T21:47:56.304Z,-0.10
2019-01-28T21:50:26.376Z,-0.10
2019-01-28T21:52:54.992Z,-0.10
2019-01-28T21:55:23.476Z,-0.20
2019-01-28T21:57:52.088Z,-0.20
2019-01-28T22:00:20.900Z,-0.20
2019-01-28T22:02:49.404Z,-0.20
2019-01-28T22:05:17.855Z,-0.30
2019-01-28T22:07:47.372Z,-0.30
2019-01-28T22:10:16.157Z,-0.30
2019-01-28T22:12:44.660Z,-0.30
2019-01-28T22:15:17.883Z,-0.30
2019-01-28T22:17:46.340Z,-0.30
2019-01-28T22:20:15.594Z,-0.40
2019-01-28T22:22:44.226Z,-0.40
2019-01-28T22:25:14.523Z,-0.40
2019-01-28T22:27:42.961Z,-0.50
2019-01-28T22:30:14.824Z,-0.50
2019-01-28T22:32:43.373Z,-0.50
2019-01-28T22:35:12.044Z,-0.50
2019-01-28T22:37:40.517Z,-0.50
2019-01-28T22:40:11.775Z,-0.50
2019-01-28T22:42:40.450Z,-0.60
2019-01-28T22:45:12.212Z,-0.60
2019-01-28T22:47:40.644Z,-0.60
2019-01-28T22:50:12.132Z,-0.60
2019-01-28T22:52:40.581Z,-0.60
2019-01-28T22:55:11.860Z,-0.70
2019-01-28T22:57:40.585Z,-0.70
2019-01-28T23:00:19.817Z,-0.70
2019-01-28T23:02:48.268Z,-0.70
2019-01-28T23:05:16.700Z,-0.80
2019-01-28T23:07:45.200Z,-0.80
2019-01-28T23:10:13.708Z,-0.80
2019-01-28T23:12:42.245Z,-0.80
2019-01-28T23:15:11.145Z,-0.90
2019-01-28T23:17:39.609Z,-0.90
2019-01-28T23:20:09.313Z,-0.90
2019-01-28T23:22:37.843Z,-1.00
2019-01-28T23:25:07.012Z,-1.00
2019-01-28T23:27:35.474Z,-1.00
2019-01-28T23:30:05.640Z,-1.00
2019-01-28T23:32:34.073Z,-1.10
2019-01-28T23:35:02.528Z,-1.00
2019-01-28T23:37:30.966Z,-1.10
2019-01-28T23:39:59.432Z,-1.10
2019-01-28T23:42:27.844Z,-1.10
2019-01-28T23:44:56.313Z,-1.20
2019-01-28T23:47:24.743Z,-1.20
2019-01-28T23:49:53.165Z,-1.20
2019-01-28T23:52:25.088Z,-1.20
2019-01-28T23:54:52.033Z,-1.20
2019-01-28T23:57:20.464Z,-1.20
2019-01-28T23:59:48.988Z,-1.20
